Time;durP1;ratioP1;P1;durP2;ratioP2;P2;SDS_P1;SDS_P2;PMS_P1;PMS_P2;Temp;Humidity;BMP_temperature;BMP_pressure;BME280_temperature;BME280_humidity;BME280_pressure;Samples;Min_cycle;Max_cycle;Signal;HPM_P1;HPM_P2
2024/02/18 00:00:51;;;;;;;9.25;5.88;;;;;;;-146.25;100.00;52627.75;2088516;28;20115;-65
2024/02/18 00:01:55;;;;;;;11.48;6.03;;;;;;;-146.25;100.00;52617.59;2089080;28;20038;-65
2024/02/18 00:02:57;;;;;;;14.25;6.22;;;;;;;-146.25;100.00;52670.31;2079690;28;34655;-65
2024/02/18 00:03:59;;;;;;;10.27;6.53;;;;;;;-146.25;100.00;52605.44;2079674;28;34771;-66
2024/02/18 00:05:02;;;;;;;13.20;7.00;;;;;;;-146.25;100.00;52635.84;2088149;28;38140;-65
2024/02/18 00:06:04;;;;;;;11.40;6.78;;;;;;;-146.25;100.00;52656.13;2088177;28;33806;-66
2024/02/18 00:07:07;;;;;;;13.75;6.93;;;;;;;-146.25;100.00;52625.72;2088354;28;36010;-65
2024/02/18 00:08:10;;;;;;;13.85;6.55;;;;;;;-146.25;100.00;52643.97;2088230;28;36052;-65
2024/02/18 00:09:12;;;;;;;11.43;6.53;;;;;;;-146.25;100.00;52593.25;2087894;28;33833;-66
2024/02/18 00:10:14;;;;;;;14.23;6.18;;;;;;;-146.25;100.00;52617.59;2087843;28;36846;-65
2024/02/18 00:11:18;;;;;;;12.05;7.20;;;;;;;-146.25;100.00;52601.38;2088369;28;34023;-64
2024/02/18 00:12:24;;;;;;;13.93;6.82;;;;;;;-146.25;100.00;52621.66;2087912;28;34200;-65
2024/02/18 00:13:26;;;;;;;10.95;6.90;;;;;;;-146.25;100.00;52623.69;2088607;28;22476;-65
2024/02/18 00:14:28;;;;;;;16.75;7.57;;;;;;;-146.25;100.00;52601.38;2088445;28;31142;-65
2024/02/18 00:15:30;;;;;;;14.15;7.10;;;;;;;-146.25;100.00;52629.75;2088438;28;20131;-65
2024/02/18 00:16:32;;;;;;;13.60;7.45;;;;;;;-146.25;100.00;52617.59;2088633;28;29854;-65
2024/02/18 00:17:36;;;;;;;13.93;7.05;;;;;;;-146.25;100.00;52619.63;2087768;28;33732;-64
2024/02/18 00:18:37;;;;;;;12.63;7.10;;;;;;;-146.25;100.00;52595.28;2088382;28;32310;-65
2024/02/18 00:19:44;;;;;;;10.57;7.20;;;;;;;-146.25;100.00;52619.63;2088568;28;20045;-65
2024/02/18 00:20:46;;;;;;;14.32;7.00;;;;;;;-146.25;100.00;52617.59;2088013;28;31834;-64
2024/02/18 00:21:47;;;;;;;9.98;6.82;;;;;;;-146.25;100.00;52643.97;2088201;28;34249;-65
2024/02/18 00:22:49;;;;;;;10.73;7.05;;;;;;;-146.25;100.00;52611.50;2088378;28;26410;-64
2024/02/18 00:23:51;;;;;;;11.10;6.90;;;;;;;-146.25;100.00;52648.00;2088112;28;35813;-65
2024/02/18 00:24:53;;;;;;;13.68;7.78;;;;;;;-146.25;100.00;52629.75;2088205;28;35458;-65
2024/02/18 00:25:57;;;;;;;11.75;7.05;;;;;;;-146.25;100.00;52605.44;2088263;28;20144;-64
2024/02/18 00:26:59;;;;;;;12.02;7.85;;;;;;;-146.25;100.00;52619.63;2088015;28;33315;-65
2024/02/18 00:28:03;;;;;;;11.60;7.63;;;;;;;-146.25;100.00;52660.19;2079148;28;22686;-65
2024/02/18 00:29:09;;;;;;;11.18;7.40;;;;;;;-146.25;100.00;52591.25;2070890;28;23862;-65
2024/02/18 00:30:11;;;;;;;14.27;7.88;;;;;;;-146.25;100.00;52609.50;2080015;28;23903;-65
2024/02/18 00:31:13;;;;;;;13.70;7.47;;;;;;;-146.25;100.00;52607.47;2088529;28;23948;-65
2024/02/18 00:32:14;;;;;;;17.52;7.35;;;;;;;-146.25;100.00;52593.25;2088524;28;21069;-65
2024/02/18 00:33:19;;;;;;;13.40;7.80;;;;;;;-146.25;100.00;52597.31;2088376;28;36434;-65
2024/02/18 00:34:21;;;;;;;13.20;7.55;;;;;;;-146.25;100.00;52623.69;2088116;28;35944;-65
2024/02/18 00:35:24;;;;;;;12.38;8.00;;;;;;;-146.25;100.00;52595.28;2088113;28;32301;-64
2024/02/18 00:36:27;;;;;;;13.32;8.20;;;;;;;-146.25;100.00;52627.75;2087519;28;34845;-65
2024/02/18 00:37:29;;;;;;;11.65;7.57;;;;;;;-146.25;100.00;52637.88;2088757;28;20033;-65
2024/02/18 00:38:30;;;;;;;12.35;7.68;;;;;;;-146.25;100.00;52607.47;2087513;28;36753;-65
2024/02/18 00:39:32;;;;;;;13.63;8.35;;;;;;;-146.25;100.00;52641.94;2088007;28;33608;-65
2024/02/18 00:40:37;;;;;;;13.07;7.88;;;;;;;-146.25;100.00;52623.69;2088187;28;25467;-64
2024/02/18 00:41:39;;;;;;;14.02;8.30;;;;;;;-146.25;100.00;52613.53;2087753;28;37919;-65
2024/02/18 00:42:40;;;;;;;13.23;8.43;;;;;;;-146.25;100.00;52631.78;2087568;28;35387;-65
2024/02/18 00:43:42;;;;;;;10.68;7.20;;;;;;;-146.25;100.00;52627.75;2088816;28;20034;-65
2024/02/18 00:44:44;;;;;;;11.73;7.53;;;;;;;-146.25;100.00;52648.00;2087564;28;36103;-65
2024/02/18 00:45:46;;;;;;;10.88;8.48;;;;;;;-146.25;100.00;52627.75;2088496;28;34734;-64
2024/02/18 00:46:48;;;;;;;13.88;8.27;;;;;;;-146.25;100.00;52623.69;2088119;28;32426;-65
2024/02/18 00:47:54;;;;;;;12.20;8.38;;;;;;;-146.25;100.00;52619.63;2088455;28;33338;-65
2024/02/18 00:48:56;;;;;;;11.48;8.73;;;;;;;-146.25;100.00;52599.34;2088109;28;33695;-65
2024/02/18 00:50:01;;;;;;;14.93;8.57;;;;;;;-146.25;100.00;52583.13;2087994;28;33535;-65
2024/02/18 00:51:03;;;;;;;12.95;8.82;;;;;;;-146.25;100.00;52607.47;2087797;28;35634;-64
2024/02/18 00:52:05;;;;;;;16.27;8.15;;;;;;;-146.25;100.00;52639.91;2088339;28;20526;-65
2024/02/18 00:53:10;;;;;;;13.73;9.65;;;;;;;-146.25;100.00;52625.72;2087974;28;35044;-64
2024/02/18 00:54:12;;;;;;;13.57;9.80;;;;;;;-146.25;100.00;52599.34;2088597;28;20309;-65
2024/02/18 00:55:14;;;;;;;13.30;9.18;;;;;;;-146.25;100.00;52601.38;2087500;28;32813;-64
2024/02/18 00:56:18;;;;;;;14.18;9.85;;;;;;;-146.25;100.00;52611.50;2088536;28;20033;-65
2024/02/18 00:57:20;;;;;;;14.52;9.75;;;;;;;-146.25;100.00;52613.53;2087308;28;38021;-65
2024/02/18 00:58:21;;;;;;;17.33;9.82;;;;;;;-146.25;100.00;52597.31;2088263;28;32418;-65
2024/02/18 00:59:24;;;;;;;15.43;9.70;;;;;;;-146.25;100.00;52595.28;2087808;28;34177;-65
2024/02/18 01:00:26;;;;;;;14.60;9.18;;;;;;;-146.25;100.00;52648.00;2087565;28;37762;-65
2024/02/18 01:01:28;;;;;;;15.05;10.05;;;;;;;-146.25;100.00;52577.03;2087940;28;20946;-65
2024/02/18 01:02:30;;;;;;;15.18;9.95;;;;;;;-146.25;100.00;52591.25;2087885;28;36281;-65
2024/02/18 01:03:32;;;;;;;18.92;10.65;;;;;;;-146.25;100.00;52603.41;2088353;28;20934;-65
2024/02/18 01:04:34;;;;;;;15.85;10.32;;;;;;;-146.25;100.00;52601.38;2088489;28;20092;-65
2024/02/18 01:05:38;;;;;;;18.63;11.00;;;;;;;-146.25;100.00;52595.28;2087265;28;35315;-65
2024/02/18 01:06:40;;;;;;;16.50;10.18;;;;;;;-146.25;100.00;52589.22;2087567;28;38948;-65
2024/02/18 01:07:41;;;;;;;16.35;10.93;;;;;;;-146.25;100.00;52639.91;2088719;28;20049;-65
2024/02/18 01:08:43;;;;;;;15.23;10.80;;;;;;;-146.25;100.00;52587.19;2087805;28;37294;-65
2024/02/18 01:09:46;;;;;;;15.75;10.60;;;;;;;-146.25;100.00;52585.16;2087497;28;33394;-65
2024/02/18 01:10:47;;;;;;;15.27;10.63;;;;;;;-146.25;100.00;52599.34;2088748;28;20037;-65
2024/02/18 01:11:50;;;;;;;16.67;11.45;;;;;;;-146.25;100.00;52615.56;2087709;28;33514;-65
2024/02/18 01:12:52;;;;;;;17.27;11.43;;;;;;;-146.25;100.00;52605.44;2088106;28;34911;-65
2024/02/18 01:14:01;;;;;;;17.00;11.43;;;;;;;-146.25;100.00;52595.28;2088364;28;20160;-64
2024/02/18 01:15:03;;;;;;;16.95;11.32;;;;;;;-146.25;100.00;52629.75;2088054;28;35618;-65
2024/02/18 01:16:05;;;;;;;18.23;11.70;;;;;;;-146.25;100.00;52599.34;2087446;28;31759;-64
2024/02/18 01:17:07;;;;;;;21.67;12.45;;;;;;;-146.25;100.00;52573.00;2088369;28;32216;-65
2024/02/18 01:18:08;;;;;;;20.30;13.00;;;;;;;-146.25;100.00;52595.28;2080090;28;36183;-65
2024/02/18 01:19:10;;;;;;;18.02;12.13;;;;;;;-146.25;100.00;52577.03;2080144;28;35702;-65
2024/02/18 01:20:12;;;;;;;18.92;12.68;;;;;;;-146.25;100.00;52597.31;2088743;28;37624;-64
2024/02/18 01:21:16;;;;;;;20.52;13.43;;;;;;;-146.25;100.00;52613.53;2080266;28;20824;-65
2024/02/18 01:22:22;;;;;;;20.30;13.63;;;;;;;-146.25;100.00;52643.97;2079597;28;27463;-64
2024/02/18 01:23:27;;;;;;;22.85;14.43;;;;;;;-146.25;100.00;52619.63;2087870;28;34265;-65
2024/02/18 01:24:29;;;;;;;20.13;13.15;;;;;;;-146.25;100.00;52623.69;2088211;28;20042;-65
2024/02/18 01:25:35;;;;;;;20.55;14.38;;;;;;;-146.25;100.00;52662.22;2087227;28;31653;-65
2024/02/18 01:26:37;;;;;;;22.50;14.18;;;;;;;-146.25;100.00;52581.09;2087848;28;37189;-65
2024/02/18 01:27:39;;;;;;;19.75;13.02;;;;;;;-146.25;100.00;52615.56;2087792;28;31733;-64
2024/02/18 01:28:41;;;;;;;25.00;14.00;;;;;;;-146.25;100.00;52597.31;2087266;28;34510;-65
2024/02/18 01:29:43;;;;;;;22.40;13.73;;;;;;;-146.25;100.00;52625.72;2088404;28;20994;-65
2024/02/18 01:30:45;;;;;;;23.17;14.52;;;;;;;-146.25;100.00;52601.38;2087987;28;35572;-65
2024/02/18 01:31:47;;;;;;;22.42;14.85;;;;;;;-146.25;100.00;52611.50;2088450;28;34175;-65
2024/02/18 01:32:48;;;;;;;22.50;15.00;;;;;;;-146.25;100.00;52605.44;2088000;28;20049;-65
2024/02/18 01:33:50;;;;;;;22.30;15.07;;;;;;;-146.25;100.00;52597.31;2087618;28;36882;-65
2024/02/18 01:34:54;;;;;;;24.40;16.00;;;;;;;-146.25;100.00;52617.59;2087547;28;35052;-65
2024/02/18 01:35:56;;;;;;;25.50;16.30;;;;;;;-146.25;100.00;52593.25;2088058;28;20048;-64
2024/02/18 01:37:03;;;;;;;22.25;16.38;;;;;;;-146.25;100.00;52648.00;2087771;28;20062;-65
2024/02/18 01:38:05;;;;;;;25.13;16.73;;;;;;;-146.25;100.00;52583.13;2087404;28;36525;-64
2024/02/18 01:39:07;;;;;;;26.42;16.45;;;;;;;-146.25;100.00;52595.28;2087562;28;33087;-65
2024/02/18 01:40:09;;;;;;;23.33;15.85;;;;;;;-146.25;100.00;52611.50;2087320;28;36651;-65
2024/02/18 01:41:11;;;;;;;29.73;18.83;;;;;;;-146.25;100.00;52623.69;2087214;28;33917;-64
2024/02/18 01:42:13;;;;;;;28.42;17.95;;;;;;;-146.25;100.00;52627.75;2088192;28;20030;-65
2024/02/18 01:43:17;;;;;;;28.98;18.67;;;;;;;-146.25;100.00;52579.06;2087048;28;40075;-65
2024/02/18 01:44:22;;;;;;;30.75;19.00;;;;;;;-146.25;100.00;52611.50;2087503;28;35736;-65
2024/02/18 01:45:23;;;;;;;30.90;19.30;;;;;;;-146.25;100.00;52609.50;2087336;28;33063;-65
2024/02/18 01:46:26;;;;;;;29.83;19.00;;;;;;;-146.25;100.00;52603.41;2087589;28;36870;-65
2024/02/18 01:47:28;;;;;;;26.02;18.85;;;;;;;-146.25;100.00;52607.47;2079178;28;22633;-65
2024/02/18 01:48:31;;;;;;;31.85;21.20;;;;;;;-146.25;100.00;52629.75;2078936;28;35921;-64
2024/02/18 01:49:37;;;;;;;31.70;19.77;;;;;;;-146.25;100.00;52587.19;2087084;28;35072;-64
2024/02/18 01:50:39;;;;;;;31.38;19.95;;;;;;;-146.25;100.00;52591.25;2088539;28;20163;-64
2024/02/18 01:51:42;;;;;;;33.35;20.63;;;;;;;-146.25;100.00;52637.88;2079076;28;20050;-65
2024/02/18 01:52:46;;;;;;;30.08;20.83;;;;;;;-146.25;100.00;52617.59;2079136;28;38223;-64
2024/02/18 01:53:49;;;;;;;33.08;20.98;;;;;;;-146.25;100.00;52568.94;2078605;28;36812;-65
2024/02/18 01:54:52;;;;;;;31.80;21.17;;;;;;;-146.25;100.00;52607.47;2078902;28;33716;-65
2024/02/18 01:55:55;;;;;;;36.35;22.30;;;;;;;-146.25;100.00;52599.34;2078929;28;39213;-65
2024/02/18 01:56:58;;;;;;;30.92;22.10;;;;;;;-146.25;100.00;52631.78;2079623;28;20821;-64
2024/02/18 01:58:03;;;;;;;34.28;22.63;;;;;;;-146.25;100.00;52558.78;2078832;28;37134;-65
2024/02/18 01:59:08;;;;;;;31.70;21.70;;;;;;;-146.25;100.00;52607.47;2078720;28;34198;-65
2024/02/18 02:00:14;;;;;;;32.80;20.95;;;;;;;-146.25;100.00;52601.38;2079627;28;34477;-65
2024/02/18 02:01:17;;;;;;;32.38;21.92;;;;;;;-146.25;100.00;52599.34;2078870;28;35895;-64
2024/02/18 02:02:20;;;;;;;34.25;22.17;;;;;;;-146.25;100.00;52603.41;2080088;28;20042;-64
2024/02/18 02:03:22;;;;;;;30.75;21.17;;;;;;;-146.25;100.00;52595.28;2078800;28;36762;-65
2024/02/18 02:04:26;;;;;;;35.33;23.20;;;;;;;-146.25;100.00;52581.09;2079284;28;20073;-65
2024/02/18 02:05:30;;;;;;;34.33;23.02;;;;;;;-146.25;100.00;52568.94;2079369;28;36160;-65
2024/02/18 02:06:31;;;;;;;35.20;22.17;;;;;;;-146.25;100.00;52625.72;2087699;28;33199;-65
2024/02/18 02:07:34;;;;;;;35.83;22.52;;;;;;;-146.25;100.00;52581.09;2087370;28;35199;-65
2024/02/18 02:08:37;;;;;;;33.33;22.73;;;;;;;-146.25;100.00;52601.38;2078818;28;20290;-64
2024/02/18 02:09:39;;;;;;;36.45;24.00;;;;;;;-146.25;100.00;52601.38;2079454;28;20050;-65
2024/02/18 02:10:46;;;;;;;34.67;24.08;;;;;;;-146.25;100.00;52587.19;2078399;28;24238;-64
2024/02/18 02:11:48;;;;;;;37.42;24.05;;;;;;;-146.25;100.00;52607.47;2080392;28;20774;-64
2024/02/18 02:12:52;;;;;;;37.30;24.05;;;;;;;-146.25;100.00;52613.53;2088345;28;20038;-65
2024/02/18 02:13:54;;;;;;;36.13;24.17;;;;;;;-146.25;100.00;52597.31;2087841;28;23163;-65
2024/02/18 02:14:55;;;;;;;36.00;24.40;;;;;;;-146.25;100.00;52579.06;2087507;28;24134;-64
2024/02/18 02:16:00;;;;;;;36.60;24.15;;;;;;;-146.25;100.00;52577.03;2088039;28;22979;-65
2024/02/18 02:17:02;;;;;;;39.25;24.65;;;;;;;-146.25;100.00;52597.31;2080077;28;20938;-65
2024/02/18 02:18:08;;;;;;;35.15;23.58;;;;;;;-146.25;100.00;52577.03;2079207;28;32068;-64
2024/02/18 02:19:10;;;;;;;40.95;25.73;;;;;;;-146.25;100.00;52583.13;2087701;28;28884;-65
2024/02/18 02:20:12;;;;;;;39.70;25.30;;;;;;;-146.25;100.00;52599.34;2087743;28;30110;-65
2024/02/18 02:21:14;;;;;;;37.30;25.65;;;;;;;-146.25;100.00;52579.06;2087557;28;35887;-65
2024/02/18 02:22:16;;;;;;;38.70;24.17;;;;;;;-146.25;100.00;52599.34;2086948;28;20875;-65
2024/02/18 02:23:17;;;;;;;34.78;24.85;;;;;;;-146.25;100.00;52566.91;2087446;28;24737;-65
2024/02/18 02:24:19;;;;;;;44.00;26.85;;;;;;;-146.25;100.00;52601.38;2087375;28;31020;-65
2024/02/18 02:25:21;;;;;;;41.03;25.60;;;;;;;-146.25;100.00;52607.47;2087031;28;31940;-65
2024/02/18 02:26:24;;;;;;;36.10;24.88;;;;;;;-146.25;100.00;52611.50;2087559;28;30461;-65
2024/02/18 02:27:36;;;;;;;39.85;25.88;;;;;;;-146.25;100.00;52631.78;2087415;28;29302;-65
2024/02/18 02:28:47;;;;;;;37.90;25.60;;;;;;;-146.25;100.00;52599.34;2078549;28;37223;-65
2024/02/18 02:29:50;;;;;;;41.25;25.08;;;;;;;-146.25;100.00;52599.34;2079632;28;20135;-65
2024/02/18 02:30:55;;;;;;;38.47;25.38;;;;;;;-146.25;100.00;52597.31;2071660;28;36433;-65
2024/02/18 02:31:58;;;;;;;41.05;27.13;;;;;;;-146.25;100.00;52589.22;2079524;28;32694;-65
2024/02/18 02:32:59;;;;;;;42.13;28.10;;;;;;;-146.25;100.00;52603.41;2078406;28;27899;-65
2024/02/18 02:34:01;;;;;;;43.72;28.17;;;;;;;-146.25;100.00;52583.13;2078607;28;34127;-65
2024/02/18 02:35:04;;;;;;;42.78;26.95;;;;;;;-146.25;100.00;52583.13;2087240;28;34091;-65
2024/02/18 02:36:07;;;;;;;46.03;29.30;;;;;;;-146.25;100.00;52570.97;2087442;28;31416;-65
2024/02/18 02:37:09;;;;;;;41.53;27.00;;;;;;;-146.25;100.00;52570.97;2087208;28;35926;-64
2024/02/18 02:38:11;;;;;;;45.40;28.60;;;;;;;-146.25;100.00;52601.38;2087661;28;30722;-65
2024/02/18 02:39:13;;;;;;;44.60;29.02;;;;;;;-146.25;100.00;52599.34;2087284;28;37124;-65
2024/02/18 02:40:14;;;;;;;51.17;29.20;;;;;;;-146.25;100.00;52609.50;2087147;28;35131;-65
2024/02/18 02:41:18;;;;;;;42.90;28.80;;;;;;;-146.25;100.00;52593.25;2086890;28;31868;-65
2024/02/18 02:42:20;;;;;;;41.72;28.40;;;;;;;-146.25;100.00;52575.00;2087870;28;20046;-65
2024/02/18 02:43:22;;;;;;;42.72;28.30;;;;;;;-146.25;100.00;52607.47;2087539;28;34011;-65
2024/02/18 02:44:26;;;;;;;48.78;31.45;;;;;;;-146.25;100.00;52562.84;2087561;28;33933;-65
2024/02/18 02:45:28;;;;;;;48.65;30.48;;;;;;;-146.25;100.00;52570.97;2087120;28;35055;-65
2024/02/18 02:46:29;;;;;;;46.10;30.50;;;;;;;-146.25;100.00;52593.25;2087578;28;31983;-65
2024/02/18 02:47:31;;;;;;;46.05;29.30;;;;;;;-146.25;100.00;52615.56;2087094;28;28759;-65
2024/02/18 02:48:33;;;;;;;50.92;31.38;;;;;;;-146.25;100.00;52562.84;2087525;28;37005;-65
2024/02/18 02:49:37;;;;;;;51.90;31.95;;;;;;;-146.25;100.00;52585.16;2086772;28;34691;-66
2024/02/18 02:50:41;;;;;;;52.28;33.22;;;;;;;-146.25;100.00;52605.44;2088179;28;33821;-65
2024/02/18 02:51:43;;;;;;;52.80;33.28;;;;;;;-146.25;100.00;52597.31;2087302;28;35494;-65
2024/02/18 02:52:45;;;;;;;48.40;31.83;;;;;;;-146.25;100.00;52591.25;2087782;28;30657;-65
2024/02/18 02:53:47;;;;;;;52.08;33.38;;;;;;;-146.25;100.00;52581.09;2088723;28;37436;-65
2024/02/18 02:54:51;;;;;;;61.08;35.28;;;;;;;-146.25;100.00;52597.31;2088943;28;33909;-65
2024/02/18 02:55:53;;;;;;;55.35;33.70;;;;;;;-146.25;100.00;52603.41;2088280;28;34637;-65
2024/02/18 02:56:54;;;;;;;52.17;33.47;;;;;;;-146.25;100.00;52566.91;2088907;28;35113;-65
2024/02/18 02:57:56;;;;;;;57.13;36.22;;;;;;;-146.25;100.00;52575.00;2088972;28;20777;-65
2024/02/18 02:59:00;;;;;;;57.40;36.10;;;;;;;-146.25;100.00;52627.75;2088808;28;37682;-65
2024/02/18 03:00:09;;;;;;;54.22;35.28;;;;;;;-146.25;100.00;52591.25;2088359;28;33631;-65
2024/02/18 03:01:11;;;;;;;62.97;37.55;;;;;;;-146.25;100.00;52577.03;2089193;28;20037;-65
2024/02/18 03:02:16;;;;;;;58.45;35.92;;;;;;;-146.25;100.00;52575.00;2089046;28;33474;-65
2024/02/18 03:03:17;;;;;;;61.38;37.30;;;;;;;-146.25;100.00;52605.44;2088988;28;35547;-65
2024/02/18 03:04:19;;;;;;;56.65;34.58;;;;;;;-146.25;100.00;52570.97;2088167;28;36309;-65
2024/02/18 03:05:23;;;;;;;65.70;38.35;;;;;;;-146.25;100.00;52558.78;2088917;28;20045;-65
2024/02/18 03:06:24;;;;;;;67.43;38.60;;;;;;;-146.25;100.00;52579.06;2088077;28;37507;-65
2024/02/18 03:07:28;;;;;;;58.47;37.22;;;;;;;-146.25;100.00;52577.03;2088606;28;34211;-64
2024/02/18 03:08:30;;;;;;;61.83;36.58;;;;;;;-146.25;100.00;52568.94;2088999;28;20908;-65
2024/02/18 03:09:31;;;;;;;53.42;33.97;;;;;;;-146.25;100.00;52579.06;2088736;28;36607;-65
2024/02/18 03:10:37;;;;;;;66.15;37.60;;;;;;;-146.25;100.00;52603.41;2088292;28;33338;-65
2024/02/18 03:11:38;;;;;;;59.90;37.65;;;;;;;-146.25;100.00;52599.34;2080584;28;22405;-65
2024/02/18 03:12:41;;;;;;;66.03;37.65;;;;;;;-146.25;100.00;52589.22;2079639;28;27127;-65
2024/02/18 03:13:48;;;;;;;64.35;37.53;;;;;;;-146.25;100.00;52587.19;2089248;28;20021;-65
2024/02/18 03:14:50;;;;;;;62.35;38.65;;;;;;;-146.25;100.00;52597.31;2088283;28;33288;-65
2024/02/18 03:15:52;;;;;;;59.33;37.33;;;;;;;-146.25;100.00;52581.09;2088641;28;30431;-65
2024/02/18 03:16:56;;;;;;;61.22;37.80;;;;;;;-146.25;100.00;52540.53;2088431;28;26108;-65
2024/02/18 03:17:57;;;;;;;64.63;38.22;;;;;;;-146.25;100.00;52597.31;2088956;28;24965;-65
2024/02/18 03:18:59;;;;;;;54.22;35.30;;;;;;;-146.25;100.00;52577.03;2088682;28;20041;-65
2024/02/18 03:20:02;;;;;;;63.63;38.15;;;;;;;-146.25;100.00;52562.84;2088420;28;25539;-65
2024/02/18 03:21:04;;;;;;;63.95;38.22;;;;;;;-146.25;100.00;52528.38;2088515;28;23859;-65
2024/02/18 03:22:07;;;;;;;60.78;37.17;;;;;;;-146.25;100.00;52575.00;2088372;28;29421;-65
2024/02/18 03:23:08;;;;;;;63.50;39.05;;;;;;;-146.25;100.00;52601.38;2088619;28;29379;-65
2024/02/18 03:24:10;;;;;;;56.42;37.05;;;;;;;-146.25;100.00;52615.56;2089015;28;32980;-65
2024/02/18 03:25:12;;;;;;;61.72;37.50;;;;;;;-146.25;100.00;52615.56;2088568;28;23342;-66
2024/02/18 03:26:14;;;;;;;63.80;38.33;;;;;;;-146.25;100.00;52601.38;2088939;28;31434;-65
2024/02/18 03:27:17;;;;;;;64.95;37.33;;;;;;;-146.25;100.00;52564.88;2088815;28;20144;-65
2024/02/18 03:28:19;;;;;;;60.50;37.13;;;;;;;-146.25;100.00;52556.75;2089192;28;20030;-66
2024/02/18 03:29:21;;;;;;;61.65;37.47;;;;;;;-146.25;100.00;52589.22;2087889;28;31032;-65
2024/02/18 03:30:23;;;;;;;63.63;36.47;;;;;;;-146.25;100.00;52583.13;2088743;28;36391;-66
2024/02/18 03:31:25;;;;;;;61.95;36.72;;;;;;;-146.25;100.00;52603.41;2088931;28;20046;-66
2024/02/18 03:32:29;;;;;;;59.03;36.33;;;;;;;-146.25;100.00;52579.06;2088023;28;35520;-65
2024/02/18 03:33:30;;;;;;;62.40;36.70;;;;;;;-146.25;100.00;52560.81;2088016;28;29858;-65
2024/02/18 03:34:32;;;;;;;61.67;36.92;;;;;;;-146.25;100.00;52593.25;2089143;28;20041;-65
2024/02/18 03:35:34;;;;;;;57.70;36.58;;;;;;;-146.25;100.00;52566.91;2087713;28;36437;-64
2024/02/18 03:36:36;;;;;;;56.63;36.90;;;;;;;-146.25;100.00;52595.28;2088273;28;37290;-65
2024/02/18 03:37:38;;;;;;;60.80;35.33;;;;;;;-146.25;100.00;52583.13;2089120;28;20758;-64
2024/02/18 03:38:39;;;;;;;58.88;35.97;;;;;;;-146.25;100.00;52617.59;2088447;28;37643;-64
2024/02/18 03:39:41;;;;;;;58.33;36.03;;;;;;;-146.25;100.00;52581.09;2078922;28;36476;-63
2024/02/18 03:40:43;;;;;;;64.45;37.60;;;;;;;-146.25;100.00;52591.25;2079623;28;33172;-66
2024/02/18 03:41:45;;;;;;;54.63;34.35;;;;;;;-146.25;100.00;52575.00;2079404;28;37342;-65
2024/02/18 03:42:47;;;;;;;59.83;36.53;;;;;;;-146.25;100.00;52573.00;2088272;28;36394;-65
2024/02/18 03:43:48;;;;;;;52.78;35.15;;;;;;;-146.25;100.00;52587.19;2088081;28;38382;-64
2024/02/18 03:44:50;;;;;;;57.70;36.97;;;;;;;-146.25;100.00;52611.50;2088513;28;32751;-63
2024/02/18 03:45:52;;;;;;;55.67;36.30;;;;;;;-146.25;100.00;52601.38;2088670;28;34196;-64
2024/02/18 03:46:54;;;;;;;54.95;35.70;;;;;;;-146.25;100.00;52645.97;2088492;28;38243;-64
2024/02/18 03:47:55;;;;;;;55.17;34.88;;;;;;;-146.25;100.00;52611.50;2088576;28;20158;-64
2024/02/18 03:48:57;;;;;;;60.30;36.28;;;;;;;-146.25;100.00;52607.47;2089299;28;20096;-64
2024/02/18 03:49:59;;;;;;;56.42;35.90;;;;;;;-146.25;100.00;52629.75;2088060;28;30737;-64
2024/02/18 03:51:01;;;;;;;55.17;35.33;;;;;;;-146.25;100.00;52568.94;2088165;28;36069;-64
2024/02/18 03:52:03;;;;;;;58.95;35.38;;;;;;;-146.25;100.00;52581.09;2088934;28;20192;-64
2024/02/18 03:53:05;;;;;;;58.47;36.72;;;;;;;-146.25;100.00;52552.72;2088364;28;34923;-65
2024/02/18 03:54:07;;;;;;;55.35;35.33;;;;;;;-146.25;100.00;52560.81;2087873;28;33397;-65
2024/02/18 03:55:13;;;;;;;51.55;34.08;;;;;;;-146.25;100.00;52619.63;2088503;28;34051;-65
2024/02/18 03:56:15;;;;;;;55.25;33.53;;;;;;;-146.25;100.00;52581.09;2088137;28;39159;-65
2024/02/18 03:57:17;;;;;;;58.03;35.80;;;;;;;-146.25;100.00;52585.16;2089023;28;20044;-65
2024/02/18 03:58:19;;;;;;;52.17;33.92;;;;;;;-146.25;100.00;52583.13;2088160;28;33028;-65
2024/02/18 03:59:21;;;;;;;56.50;33.35;;;;;;;-146.25;100.00;52591.25;2088366;28;32599;-66
2024/02/18 04:00:23;;;;;;;56.08;34.25;;;;;;;-146.25;100.00;52593.25;2088736;28;20175;-65
2024/02/18 04:01:24;;;;;;;52.50;33.28;;;;;;;-146.25;100.00;52566.91;2088545;28;34515;-66
2024/02/18 04:02:27;;;;;;;52.92;33.28;;;;;;;-146.25;100.00;52579.06;2088323;28;20123;-65
2024/02/18 04:03:29;;;;;;;57.70;35.40;;;;;;;-146.25;100.00;52589.22;2088387;28;33729;-65
2024/02/18 04:04:30;;;;;;;58.63;35.08;;;;;;;-146.25;100.00;52577.03;2088112;28;35758;-65
2024/02/18 04:05:32;;;;;;;54.65;34.00;;;;;;;-146.25;100.00;52556.75;2089318;28;20045;-65
2024/02/18 04:06:34;;;;;;;50.38;33.05;;;;;;;-146.25;100.00;52550.69;2087981;28;35154;-64
2024/02/18 04:07:36;;;;;;;55.90;33.47;;;;;;;-146.25;100.00;52615.56;2087980;28;36850;-64
2024/02/18 04:08:38;;;;;;;50.72;33.28;;;;;;;-146.25;100.00;52595.28;2088666;28;32804;-65
2024/02/18 04:09:40;;;;;;;51.05;31.58;;;;;;;-146.25;100.00;52595.28;2088172;28;36207;-65
2024/02/18 04:10:41;;;;;;;52.60;31.95;;;;;;;-146.25;100.00;52587.19;2087936;28;20093;-65
2024/02/18 04:11:43;;;;;;;47.03;32.15;;;;;;;-146.25;100.00;52546.63;2088529;28;33241;-65
2024/02/18 04:12:45;;;;;;;53.95;32.03;;;;;;;-146.25;100.00;52546.63;2088193;28;26885;-65
2024/02/18 04:13:47;;;;;;;49.55;31.30;;;;;;;-146.25;100.00;52577.03;2088711;28;20077;-66
2024/02/18 04:14:49;;;;;;;46.58;31.30;;;;;;;-146.25;100.00;52597.31;2088051;28;37280;-65
2024/02/18 04:15:52;;;;;;;50.10;30.95;;;;;;;-146.25;100.00;52585.16;2088124;28;37064;-63
2024/02/18 04:16:53;;;;;;;50.03;32.20;;;;;;;-146.25;100.00;52601.38;2079330;28;35058;-64
2024/02/18 04:17:55;;;;;;;55.55;32.20;;;;;;;-146.25;100.00;52599.34;2079566;28;34914;-64
2024/02/18 04:18:57;;;;;;;53.03;32.03;;;;;;;-146.25;100.00;52534.47;2088041;28;37241;-64
2024/02/18 04:19:59;;;;;;;46.90;30.95;;;;;;;-146.25;100.00;52583.13;2088371;28;34168;-66
2024/02/18 04:21:01;;;;;;;51.28;32.55;;;;;;;-146.25;100.00;52566.91;2087756;28;29491;-63
2024/02/18 04:22:06;;;;;;;47.15;31.65;;;;;;;-146.25;100.00;52575.00;2088584;28;32706;-64
2024/02/18 04:23:08;;;;;;;51.42;32.13;;;;;;;-146.25;100.00;52566.91;2089050;28;20797;-66
2024/02/18 04:24:10;;;;;;;53.78;30.38;;;;;;;-146.25;100.00;52591.25;2088263;28;39791;-64
2024/02/18 04:25:11;;;;;;;48.30;31.05;;;;;;;-146.25;100.00;52579.06;2087690;28;34999;-66
2024/02/18 04:26:14;;;;;;;47.95;30.88;;;;;;;-146.25;100.00;52556.75;2088713;28;36086;-64
2024/02/18 04:27:15;;;;;;;46.17;29.30;;;;;;;-146.25;100.00;52599.34;2088587;28;32950;-66
2024/02/18 04:28:17;;;;;;;52.72;31.52;;;;;;;-146.25;100.00;52575.00;2089254;28;20965;-65
2024/02/18 04:29:19;;;;;;;47.45;30.23;;;;;;;-146.25;100.00;52627.75;2088547;28;35480;-67
2024/02/18 04:30:21;;;;;;;51.60;31.17;;;;;;;-146.25;100.00;52591.25;2088481;28;37048;-65
2024/02/18 04:31:23;;;;;;;47.42;30.92;;;;;;;-146.25;100.00;52599.34;2088282;28;32168;-64
2024/02/18 04:32:24;;;;;;;44.47;29.65;;;;;;;-146.25;100.00;52599.34;2088251;28;35010;-64
2024/02/18 04:33:26;;;;;;;42.83;28.38;;;;;;;-146.25;100.00;52583.13;2087821;28;34178;-64
2024/02/18 04:34:28;;;;;;;54.17;30.67;;;;;;;-146.25;100.00;52593.25;2088436;28;33896;-64
2024/02/18 04:35:30;;;;;;;48.95;29.65;;;;;;;-146.25;100.00;52609.50;2087830;28;35938;-64
2024/02/18 04:36:32;;;;;;;41.70;28.92;;;;;;;-146.25;100.00;52583.13;2088486;28;21791;-65
2024/02/18 04:37:34;;;;;;;48.25;30.10;;;;;;;-146.25;100.00;52611.50;2087903;28;36993;-64
2024/02/18 04:38:36;;;;;;;45.60;29.58;;;;;;;-146.25;100.00;52623.69;2087961;28;33789;-64